createdAt,value
2023-03-19T00:08:35.615Z,12.70
2023-03-19T00:23:35.848Z,12.50
2023-03-19T00:28:36.386Z,12.40
2023-03-19T00:38:35.886Z,12.50
2023-03-19T00:43:36.581Z,12.40
2023-03-19T00:48:35.810Z,12.20
2023-03-19T00:58:37.766Z,12.10
2023-03-19T01:03:36.225Z,12.30
2023-03-19T01:08:35.820Z,12.10
2023-03-19T01:13:35.948Z,11.90
2023-03-19T01:18:36.015Z,11.60
2023-03-19T01:23:35.847Z,11.70
2023-03-19T01:33:36.581Z,11.50
2023-03-19T01:43:36.519Z,11.40
2023-03-19T01:48:39.905Z,11.30
2023-03-19T01:58:36.616Z,11.20
2023-03-19T02:03:37.408Z,11.00
2023-03-19T02:08:37.294Z,10.80
2023-03-19T02:13:36.545Z,10.90
2023-03-19T02:18:36.036Z,10.80
2023-03-19T02:28:40.459Z,10.90
2023-03-19T02:33:36.033Z,10.80
2023-03-19T02:38:39.834Z,10.70
2023-03-19T02:43:38.546Z,10.50
2023-03-19T02:48:36.542Z,10.40
2023-03-19T02:58:36.096Z,10.50
2023-03-19T03:08:36.525Z,10.60
2023-03-19T03:13:36.252Z,10.40
2023-03-19T03:18:36.673Z,10.30
2023-03-19T03:23:36.452Z,10.50
2023-03-19T03:28:36.192Z,10.10
2023-03-19T03:33:36.526Z,10.20
2023-03-19T03:53:36.263Z,10.10
2023-03-19T03:58:36.844Z,10.20
2023-03-19T04:08:36.276Z,10.40
2023-03-19T04:18:36.941Z,10.50
2023-03-19T04:28:36.503Z,10.10
2023-03-19T04:38:37.181Z,10.20
2023-03-19T04:43:36.396Z,10.30
2023-03-19T04:48:38.397Z,10.10
2023-03-19T04:53:37.796Z,9.90
2023-03-19T05:13:36.515Z,10.00
2023-03-19T05:18:37.644Z,9.90
2023-03-19T05:23:36.497Z,9.70
2023-03-19T05:28:36.639Z,9.60
2023-03-19T05:33:36.502Z,9.40
2023-03-19T05:43:36.603Z,9.30
2023-03-19T05:48:36.780Z,9.20
2023-03-19T05:53:36.648Z,9.10
2023-03-19T05:58:36.559Z,8.70
2023-03-19T06:03:36.633Z,8.90
2023-03-19T06:08:36.799Z,8.80
2023-03-19T06:13:37.121Z,8.90
2023-03-19T06:18:37.299Z,9.20
2023-03-19T06:23:36.677Z,9.10
2023-03-19T06:28:36.625Z,9.20
2023-03-19T06:33:36.661Z,9.30
2023-03-19T06:38:36.865Z,9.00
2023-03-19T06:43:36.992Z,9.10
2023-03-19T06:48:37.301Z,9.30
2023-03-19T06:53:36.696Z,9.40
2023-03-19T06:58:36.792Z,9.20
2023-03-19T07:03:36.735Z,9.50
2023-03-19T07:08:36.784Z,9.60
2023-03-19T07:13:37.098Z,9.80
2023-03-19T07:23:36.781Z,9.90
2023-03-19T07:33:37.437Z,10.10
2023-03-19T07:38:36.843Z,9.90
2023-03-19T07:43:36.846Z,10.10
2023-03-19T07:53:36.892Z,10.30
2023-03-19T07:58:36.945Z,10.40
2023-03-19T08:08:37.014Z,10.70
2023-03-19T08:18:36.932Z,10.60
2023-03-19T08:23:36.922Z,10.50
2023-03-19T08:33:37.627Z,10.70
2023-03-19T08:38:37.602Z,10.50
2023-03-19T08:43:37.537Z,10.70
2023-03-19T08:48:39.157Z,10.30
2023-03-19T08:53:38.006Z,10.50
2023-03-19T08:58:37.496Z,10.60
2023-03-19T09:03:38.145Z,10.70
2023-03-19T09:08:37.670Z,10.60
2023-03-19T09:13:37.068Z,10.70
2023-03-19T09:18:37.157Z,10.80
2023-03-19T09:23:37.062Z,10.70
2023-03-19T09:33:37.212Z,10.80
2023-03-19T09:38:38.251Z,10.90
2023-03-19T09:43:54.916Z,10.70
2023-03-19T09:48:47.405Z,10.90
2023-03-19T09:53:47.245Z,10.70
2023-03-19T09:58:37.314Z,10.90
2023-03-19T10:08:53.072Z,11.30
2023-03-19T10:13:47.145Z,11.40
2023-03-19T10:18:43.559Z,10.90
2023-03-19T10:23:49.583Z,11.00
2023-03-19T10:28:38.929Z,10.90
2023-03-19T10:33:45.562Z,11.00
2023-03-19T10:38:40.517Z,11.10
2023-03-19T10:53:38.257Z,11.20
2023-03-19T10:58:39.327Z,11.30
2023-03-19T11:03:39.889Z,11.40
2023-03-19T11:08:37.865Z,11.60
2023-03-19T11:18:38.377Z,11.40
2023-03-19T11:28:43.613Z,11.70
2023-03-19T11:33:58.460Z,11.40
2023-03-19T11:38:50.194Z,11.30
2023-03-19T11:43:57.306Z,11.50
2023-03-19T11:48:44.371Z,11.40
2023-03-19T11:53:50.570Z,11.60
2023-03-19T11:58:47.101Z,11.50
2023-03-19T12:28:38.580Z,11.60
2023-03-19T12:38:44.473Z,11.70
2023-03-19T12:48:45.672Z,11.50
2023-03-19T12:58:48.806Z,11.40
2023-03-19T13:03:45.810Z,11.30
2023-03-19T13:13:47.994Z,11.40
2023-03-19T13:23:40.566Z,11.60
2023-03-19T13:28:58.126Z,11.50
2023-03-19T13:33:38.281Z,11.60
2023-03-19T13:38:49.304Z,11.80
2023-03-19T13:43:37.720Z,12.00
2023-03-19T13:48:45.017Z,12.10
2023-03-19T13:53:41.456Z,12.20
2023-03-19T13:58:51.818Z,12.10
2023-03-19T14:03:40.397Z,12.00
2023-03-19T14:08:46.529Z,11.90
2023-03-19T14:18:41.194Z,11.40
2023-03-19T14:23:43.066Z,11.00
2023-03-19T14:28:45.027Z,11.20
2023-03-19T14:33:44.883Z,11.30
2023-03-19T14:43:57.774Z,11.50
2023-03-19T14:48:57.251Z,11.70
2023-03-19T14:53:51.200Z,11.50
2023-03-19T14:58:46.169Z,11.70
2023-03-19T15:03:38.002Z,11.80
2023-03-19T15:08:39.867Z,11.70
2023-03-19T15:13:48.982Z,11.40
2023-03-19T15:38:45.095Z,11.20
2023-03-19T15:43:39.746Z,11.70
2023-03-19T15:48:52.218Z,11.90
2023-03-19T15:53:38.502Z,12.30
2023-03-19T15:58:41.631Z,12.40
2023-03-19T16:08:46.615Z,12.30
2023-03-19T16:18:51.069Z,12.20
2023-03-19T16:23:44.294Z,12.10
2023-03-19T16:28:47.818Z,12.00
2023-03-19T16:38:44.923Z,11.90
2023-03-19T16:43:43.530Z,12.10
2023-03-19T16:48:38.696Z,11.90
2023-03-19T16:53:38.397Z,12.00
2023-03-19T16:58:41.684Z,11.90
2023-03-19T17:03:38.442Z,11.70
2023-03-19T17:08:39.474Z,11.30
2023-03-19T17:13:43.507Z,11.10
2023-03-19T17:18:41.770Z,11.20
2023-03-19T17:28:38.380Z,11.10
2023-03-19T17:33:38.358Z,11.20
2023-03-19T17:38:38.323Z,11.10
2023-03-19T17:48:38.385Z,10.90
2023-03-19T17:58:38.461Z,11.00
2023-03-19T18:03:38.720Z,11.10
2023-03-19T18:13:38.628Z,11.00
2023-03-19T18:18:38.526Z,10.70
2023-03-19T18:23:38.522Z,10.80
2023-03-19T18:28:38.684Z,10.70
2023-03-19T18:33:38.709Z,10.60
2023-03-19T18:38:39.642Z,10.50
2023-03-19T18:48:38.755Z,10.40
2023-03-19T18:53:38.604Z,10.30
2023-03-19T19:18:38.605Z,10.20
2023-03-19T19:23:39.005Z,10.30
2023-03-19T19:28:41.304Z,10.20
2023-03-19T19:33:38.617Z,10.00
2023-03-19T19:38:38.655Z,10.10
2023-03-19T19:53:38.721Z,10.20
2023-03-19T19:58:39.791Z,10.00
2023-03-19T20:08:39.835Z,9.90
2023-03-19T20:13:39.496Z,9.80
2023-03-19T20:23:41.812Z,9.70
2023-03-19T20:33:38.801Z,9.80
2023-03-19T20:43:38.991Z,9.70
2023-03-19T20:48:38.858Z,9.50
2023-03-19T20:58:23.258Z,9.50
2023-03-19T20:58:26.371Z,9.50
2023-03-19T20:58:30.256Z,9.50
2023-03-19T20:58:33.772Z,9.50
2023-03-19T21:03:38.949Z,9.60
2023-03-19T21:08:41.465Z,9.50
2023-03-19T21:15:38.336Z,9.50
2023-03-19T21:15:39.082Z,9.50
2023-03-19T21:15:39.618Z,9.50
2023-03-19T21:18:38.915Z,9.40
2023-03-19T21:23:42.672Z,9.60
2023-03-19T21:53:39.636Z,9.50
2023-03-19T21:58:41.328Z,9.30
2023-03-19T22:03:39.208Z,9.50
2023-03-19T22:18:39.047Z,9.40
2023-03-19T22:23:39.366Z,9.60
2023-03-19T22:28:39.288Z,9.40
2023-03-19T22:33:39.264Z,9.50
2023-03-19T22:38:39.838Z,9.60
2023-03-19T22:43:39.235Z,9.50
2023-03-19T22:58:39.789Z,9.40
2023-03-19T23:03:40.913Z,9.60
2023-03-19T23:13:39.660Z,9.70
2023-03-19T23:23:39.382Z,9.50
2023-03-19T23:33:39.248Z,9.40
2023-03-19T23:43:40.525Z,9.30
2023-03-19T23:48:39.348Z,9.20
2023-03-19T23:53:40.334Z,9.30
2023-03-19T23:58:42.123Z,9.20
